logo
Search for airport 
image banner adimage banner adimage banner ad
image banner ad

SWIY - Santa Isabel Do Morro

Located in Lagoa Da Confusão, Brazil

ICAO - SWIY, IATA - IDO

Data provided by Airmate  

General information

Coordinates: S11°34'24" W50°40'6"
Elevation is 646 feet MSL.
Magnetic variation is -20° East
View others Airports in Tocatins

Operational data

Special qualification required
Current time UTC:
Current local time:
Weather at : - ( 0 km )
METAR: CYFC 140512Z AUTO 19009KT 8SM -RA OVC010 06/05 A2941 RMK SLP963
View NOTAMs / SUP AIP / TFR affecting this airport [VIEW]
Communications frequencies: [VIEW]

Runways:

RWY identifierQFULength (ft)Width (ft)SurfaceLDA (ft)
12505298ASPH
30505298ASPH

Airport contact information

Address: Lagoa Da Confusão Brazil

Satellite view of SWIY